sensor_id;sensor_type;location;lat;lon;timestamp;pressure;altitude;pressure_sealevel;temperature
15333;BMP180;7766;51.534;6.722;2022-09-09T00:00:33;-18060.69;;;185.33
15333;BMP180;7766;51.534;6.722;2022-09-09T00:01:40;-18060.69;;;185.33
15333;BMP180;7766;51.534;6.722;2022-09-09T00:03:12;-18060.69;;;185.33
15333;BMP180;7766;51.534;6.722;2022-09-09T00:04:29;-18060.69;;;185.33
15333;BMP180;7766;51.534;6.722;2022-09-09T00:05:44;-18054.13;;;185.33
15333;BMP180;7766;51.534;6.722;2022-09-09T00:08:07;-18060.69;;;185.33
15333;BMP180;7766;51.534;6.722;2022-09-09T00:13:09;66029.41;;;-132.42
15333;BMP180;7766;51.534;6.722;2022-09-09T00:14:47;66029.41;;;-132.42
15333;BMP180;7766;51.534;6.722;2022-09-09T00:17:30;66029.41;;;-132.42
15333;BMP180;7766;51.534;6.722;2022-09-09T00:21:16;66029.41;;;-132.42
15333;BMP180;7766;51.534;6.722;2022-09-09T00:22:20;66029.41;;;-132.42
15333;BMP180;7766;51.534;6.722;2022-09-09T00:23:27;66029.41;;;-132.42
15333;BMP180;7766;51.534;6.722;2022-09-09T00:26:09;66029.41;;;-132.42
15333;BMP180;7766;51.534;6.722;2022-09-09T00:30:24;66029.41;;;-132.42
15333;BMP180;7766;51.534;6.722;2022-09-09T00:31:30;66029.41;;;-132.42
15333;BMP180;7766;51.534;6.722;2022-09-09T00:32:33;66029.41;;;-132.42
15333;BMP180;7766;51.534;6.722;2022-09-09T00:33:36;66029.41;;;-132.42
15333;BMP180;7766;51.534;6.722;2022-09-09T00:34:48;66029.41;;;-132.42
15333;BMP180;7766;51.534;6.722;2022-09-09T00:35:58;66029.41;;;-132.42
15333;BMP180;7766;51.534;6.722;2022-09-09T00:37:00;66029.41;;;-132.42
15333;BMP180;7766;51.534;6.722;2022-09-09T00:38:16;66029.41;;;-132.42
15333;BMP180;7766;51.534;6.722;2022-09-09T00:39:42;66029.41;;;-132.42
15333;BMP180;7766;51.534;6.722;2022-09-09T00:40:57;66029.41;;;-132.42
15333;BMP180;7766;51.534;6.722;2022-09-09T00:42:16;66029.41;;;-132.42
15333;BMP180;7766;51.534;6.722;2022-09-09T00:43:30;66029.41;;;-132.42
15333;BMP180;7766;51.534;6.722;2022-09-09T00:44:34;66029.41;;;-132.42
15333;BMP180;7766;51.534;6.722;2022-09-09T00:49:02;66029.41;;;-132.42
15333;BMP180;7766;51.534;6.722;2022-09-09T00:51:15;66029.41;;;-132.42
15333;BMP180;7766;51.534;6.722;2022-09-09T00:52:30;66029.41;;;-132.42
15333;BMP180;7766;51.534;6.722;2022-09-09T00:54:13;66029.41;;;-132.42
15333;BMP180;7766;51.534;6.722;2022-09-09T00:57:04;66029.41;;;-132.42
15333;BMP180;7766;51.534;6.722;2022-09-09T00:58:09;66029.41;;;-132.42
15333;BMP180;7766;51.534;6.722;2022-09-09T00:59:31;66029.41;;;-132.42
15333;BMP180;7766;51.534;6.722;2022-09-09T01:01:42;66029.41;;;-132.42
15333;BMP180;7766;51.534;6.722;2022-09-09T01:02:53;66029.41;;;-132.42
15333;BMP180;7766;51.534;6.722;2022-09-09T01:03:56;66029.41;;;-132.42
15333;BMP180;7766;51.534;6.722;2022-09-09T01:05:34;66029.41;;;-132.42
15333;BMP180;7766;51.534;6.722;2022-09-09T01:06:37;66029.41;;;-132.42
15333;BMP180;7766;51.534;6.722;2022-09-09T01:07:40;66029.41;;;-132.42
15333;BMP180;7766;51.534;6.722;2022-09-09T01:10:52;66029.41;;;-132.42
15333;BMP180;7766;51.534;6.722;2022-09-09T01:12:28;66029.41;;;-132.42
15333;BMP180;7766;51.534;6.722;2022-09-09T01:13:32;66029.41;;;-132.42
15333;BMP180;7766;51.534;6.722;2022-09-09T01:15:36;66029.41;;;-132.42
15333;BMP180;7766;51.534;6.722;2022-09-09T01:16:39;66029.41;;;-132.42
15333;BMP180;7766;51.534;6.722;2022-09-09T01:18:49;66029.41;;;-132.42
15333;BMP180;7766;51.534;6.722;2022-09-09T01:22:43;66029.41;;;-132.42
15333;BMP180;7766;51.534;6.722;2022-09-09T01:25:29;66029.41;;;-132.42
15333;BMP180;7766;51.534;6.722;2022-09-09T01:26:42;66029.41;;;-132.42
15333;BMP180;7766;51.534;6.722;2022-09-09T01:27:44;66029.41;;;-132.42
15333;BMP180;7766;51.534;6.722;2022-09-09T01:28:49;66029.41;;;-132.42
15333;BMP180;7766;51.534;6.722;2022-09-09T01:29:50;66029.41;;;-132.42
15333;BMP180;7766;51.534;6.722;2022-09-09T01:30:51;66029.41;;;-132.42
15333;BMP180;7766;51.534;6.722;2022-09-09T01:31:54;66029.41;;;-132.42
15333;BMP180;7766;51.534;6.722;2022-09-09T01:32:58;66029.41;;;-132.42
15333;BMP180;7766;51.534;6.722;2022-09-09T01:34:01;66029.41;;;-132.42
15333;BMP180;7766;51.534;6.722;2022-09-09T01:35:03;66029.41;;;-132.42
15333;BMP180;7766;51.534;6.722;2022-09-09T01:36:19;66029.41;;;-132.42
15333;BMP180;7766;51.534;6.722;2022-09-09T01:37:22;66029.41;;;-132.42
15333;BMP180;7766;51.534;6.722;2022-09-09T01:38:24;66029.41;;;-132.42
15333;BMP180;7766;51.534;6.722;2022-09-09T01:39:26;66029.41;;;-132.42
15333;BMP180;7766;51.534;6.722;2022-09-09T01:40:27;66029.41;;;-132.42
15333;BMP180;7766;51.534;6.722;2022-09-09T01:41:28;66029.41;;;-132.42
15333;BMP180;7766;51.534;6.722;2022-09-09T01:42:29;66029.41;;;-132.42
15333;BMP180;7766;51.534;6.722;2022-09-09T01:43:30;66029.41;;;-132.42
15333;BMP180;7766;51.534;6.722;2022-09-09T01:44:32;66029.41;;;-132.42
15333;BMP180;7766;51.534;6.722;2022-09-09T01:45:35;66029.41;;;-132.42
15333;BMP180;7766;51.534;6.722;2022-09-09T01:46:36;66029.41;;;-132.42
15333;BMP180;7766;51.534;6.722;2022-09-09T01:47:37;66029.41;;;-132.42
15333;BMP180;7766;51.534;6.722;2022-09-09T01:48:39;66029.41;;;-132.42
15333;BMP180;7766;51.534;6.722;2022-09-09T01:49:41;66029.41;;;-132.42
15333;BMP180;7766;51.534;6.722;2022-09-09T01:50:42;66029.41;;;-132.42
15333;BMP180;7766;51.534;6.722;2022-09-09T01:51:43;66029.41;;;-132.42
15333;BMP180;7766;51.534;6.722;2022-09-09T01:52:50;66029.41;;;-132.42
15333;BMP180;7766;51.534;6.722;2022-09-09T01:53:53;66029.41;;;-132.42
15333;BMP180;7766;51.534;6.722;2022-09-09T01:54:54;66029.41;;;-132.42
15333;BMP180;7766;51.534;6.722;2022-09-09T01:56:35;66029.41;;;-132.42
15333;BMP180;7766;51.534;6.722;2022-09-09T01:58:00;66029.41;;;-132.42
15333;BMP180;7766;51.534;6.722;2022-09-09T02:00:15;66029.41;;;-132.42
15333;BMP180;7766;51.534;6.722;2022-09-09T02:03:05;66029.41;;;-132.42
15333;BMP180;7766;51.534;6.722;2022-09-09T02:04:36;66029.41;;;-132.42
15333;BMP180;7766;51.534;6.722;2022-09-09T02:05:44;66029.41;;;-132.42
15333;BMP180;7766;51.534;6.722;2022-09-09T02:06:51;66029.41;;;-132.42
15333;BMP180;7766;51.534;6.722;2022-09-09T02:08:07;66029.41;;;-132.42
15333;BMP180;7766;51.534;6.722;2022-09-09T02:09:11;66029.41;;;-132.42
15333;BMP180;7766;51.534;6.722;2022-09-09T02:10:30;66029.41;;;-132.42
15333;BMP180;7766;51.534;6.722;2022-09-09T02:11:33;66029.41;;;-132.42
15333;BMP180;7766;51.534;6.722;2022-09-09T02:12:35;-18060.69;;;185.33
15333;BMP180;7766;51.534;6.722;2022-09-09T02:13:39;128313.22;;;185.32
15333;BMP180;7766;51.534;6.722;2022-09-09T02:14:45;66029.41;;;-132.42
15333;BMP180;7766;51.534;6.722;2022-09-09T02:17:15;66029.41;;;-132.42
15333;BMP180;7766;51.534;6.722;2022-09-09T02:18:23;66029.41;;;-132.42
15333;BMP180;7766;51.534;6.722;2022-09-09T02:19:35;66029.41;;;-132.42
15333;BMP180;7766;51.534;6.722;2022-09-09T02:20:38;66029.41;;;-132.42
15333;BMP180;7766;51.534;6.722;2022-09-09T02:21:42;66029.41;;;-132.42
15333;BMP180;7766;51.534;6.722;2022-09-09T02:22:49;66029.41;;;-132.42
15333;BMP180;7766;51.534;6.722;2022-09-09T02:23:51;66029.41;;;-132.42
15333;BMP180;7766;51.534;6.722;2022-09-09T02:24:58;66029.41;;;-132.42
15333;BMP180;7766;51.534;6.722;2022-09-09T02:26:00;66029.41;;;-132.42
15333;BMP180;7766;51.534;6.722;2022-09-09T02:27:06;66029.41;;;-132.42
15333;BMP180;7766;51.534;6.722;2022-09-09T02:28:10;66029.41;;;-132.42
15333;BMP180;7766;51.534;6.722;2022-09-09T02:29:16;66029.41;;;-132.42
15333;BMP180;7766;51.534;6.722;2022-09-09T02:30:20;66029.41;;;-132.42
15333;BMP180;7766;51.534;6.722;2022-09-09T02:31:23;66029.41;;;-132.42
15333;BMP180;7766;51.534;6.722;2022-09-09T02:32:25;66029.41;;;-132.42
15333;BMP180;7766;51.534;6.722;2022-09-09T02:33:30;66029.41;;;-132.42
15333;BMP180;7766;51.534;6.722;2022-09-09T02:34:39;-11554.06;;;-132.42
15333;BMP180;7766;51.534;6.722;2022-09-09T02:35:42;-18060.56;;;185.33
15333;BMP180;7766;51.534;6.722;2022-09-09T02:36:45;100177.19;;;17.73
15333;BMP180;7766;51.534;6.722;2022-09-09T02:37:48;100173.63;;;17.67
15333;BMP180;7766;51.534;6.722;2022-09-09T02:38:50;100179.75;;;17.68
15333;BMP180;7766;51.534;6.722;2022-09-09T02:39:55;66029.41;;;-132.42
15333;BMP180;7766;51.534;6.722;2022-09-09T02:40:56;66029.41;;;-132.42
15333;BMP180;7766;51.534;6.722;2022-09-09T02:41:57;66029.41;;;-132.42
15333;BMP180;7766;51.534;6.722;2022-09-09T02:42:58;-18060.69;;;185.33
15333;BMP180;7766;51.534;6.722;2022-09-09T02:44:01;100179.75;;;185.33
15333;BMP180;7766;51.534;6.722;2022-09-09T02:45:02;100179.84;;;17.73
15333;BMP180;7766;51.534;6.722;2022-09-09T02:46:17;100179.63;;;185.33
15333;BMP180;7766;51.534;6.722;2022-09-09T02:47:38;100179.63;;;185.33
15333;BMP180;7766;51.534;6.722;2022-09-09T02:48:55;100179.16;;;17.77
15333;BMP180;7766;51.534;6.722;2022-09-09T02:50:20;100183.06;;;17.75
15333;BMP180;7766;51.534;6.722;2022-09-09T02:51:50;66029.41;;;-132.42
15333;BMP180;7766;51.534;6.722;2022-09-09T02:53:06;66029.41;;;-132.42
15333;BMP180;7766;51.534;6.722;2022-09-09T02:55:41;66029.41;;;-132.42
15333;BMP180;7766;51.534;6.722;2022-09-09T02:56:50;66029.41;;;-132.42
15333;BMP180;7766;51.534;6.722;2022-09-09T02:57:52;66029.41;;;-132.42
15333;BMP180;7766;51.534;6.722;2022-09-09T02:58:54;66029.41;;;-132.42
15333;BMP180;7766;51.534;6.722;2022-09-09T02:59:58;66029.41;;;-132.42
15333;BMP180;7766;51.534;6.722;2022-09-09T03:00:59;66029.41;;;-132.42
15333;BMP180;7766;51.534;6.722;2022-09-09T03:02:03;66029.41;;;-132.42
15333;BMP180;7766;51.534;6.722;2022-09-09T03:03:06;66029.41;;;-132.42
15333;BMP180;7766;51.534;6.722;2022-09-09T03:04:07;66029.41;;;-132.42
15333;BMP180;7766;51.534;6.722;2022-09-09T03:05:08;66029.41;;;-132.42
15333;BMP180;7766;51.534;6.722;2022-09-09T03:06:09;66029.41;;;-132.42
15333;BMP180;7766;51.534;6.722;2022-09-09T03:07:12;66029.41;;;-132.42
15333;BMP180;7766;51.534;6.722;2022-09-09T03:08:13;66029.41;;;-132.42
15333;BMP180;7766;51.534;6.722;2022-09-09T03:09:14;66029.41;;;-132.42
15333;BMP180;7766;51.534;6.722;2022-09-09T03:10:16;66029.41;;;-132.42
15333;BMP180;7766;51.534;6.722;2022-09-09T03:11:17;66029.41;;;-132.42
15333;BMP180;7766;51.534;6.722;2022-09-09T03:12:18;66029.41;;;-132.42
15333;BMP180;7766;51.534;6.722;2022-09-09T03:13:19;66029.41;;;-132.42
15333;BMP180;7766;51.534;6.722;2022-09-09T03:14:20;66029.41;;;-132.42
15333;BMP180;7766;51.534;6.722;2022-09-09T03:15:25;66029.41;;;-132.42
15333;BMP180;7766;51.534;6.722;2022-09-09T03:16:29;66029.41;;;-132.42
15333;BMP180;7766;51.534;6.722;2022-09-09T03:17:30;66029.41;;;-132.42
15333;BMP180;7766;51.534;6.722;2022-09-09T03:18:31;66029.41;;;-132.42
15333;BMP180;7766;51.534;6.722;2022-09-09T03:19:33;66029.41;;;-132.42
15333;BMP180;7766;51.534;6.722;2022-09-09T03:20:36;66029.41;;;-132.42
15333;BMP180;7766;51.534;6.722;2022-09-09T03:21:36;66029.41;;;-132.42
15333;BMP180;7766;51.534;6.722;2022-09-09T03:22:37;66029.41;;;-132.42
15333;BMP180;7766;51.534;6.722;2022-09-09T03:23:38;66029.41;;;-132.42
15333;BMP180;7766;51.534;6.722;2022-09-09T03:24:39;66029.41;;;-132.42
15333;BMP180;7766;51.534;6.722;2022-09-09T03:25:47;66029.41;;;-132.42
15333;BMP180;7766;51.534;6.722;2022-09-09T03:26:49;66029.41;;;-132.42
15333;BMP180;7766;51.534;6.722;2022-09-09T03:27:52;66029.41;;;-132.42
15333;BMP180;7766;51.534;6.722;2022-09-09T03:28:54;66029.41;;;-132.42
15333;BMP180;7766;51.534;6.722;2022-09-09T03:29:55;66029.41;;;-132.42
15333;BMP180;7766;51.534;6.722;2022-09-09T03:31:06;66029.41;;;-132.42
15333;BMP180;7766;51.534;6.722;2022-09-09T03:32:10;66029.41;;;-132.42
15333;BMP180;7766;51.534;6.722;2022-09-09T03:33:11;66029.41;;;-132.42
15333;BMP180;7766;51.534;6.722;2022-09-09T03:34:13;66029.41;;;-132.42
15333;BMP180;7766;51.534;6.722;2022-09-09T03:35:14;66029.41;;;-132.42
15333;BMP180;7766;51.534;6.722;2022-09-09T03:36:16;66029.41;;;-132.42
15333;BMP180;7766;51.534;6.722;2022-09-09T03:37:18;66029.41;;;-132.42
15333;BMP180;7766;51.534;6.722;2022-09-09T03:38:19;66029.41;;;-132.42
15333;BMP180;7766;51.534;6.722;2022-09-09T03:39:20;66029.41;;;-132.42
15333;BMP180;7766;51.534;6.722;2022-09-09T03:40:21;66029.41;;;-132.42
15333;BMP180;7766;51.534;6.722;2022-09-09T03:41:22;66029.41;;;-132.42
15333;BMP180;7766;51.534;6.722;2022-09-09T03:42:24;66029.41;;;-132.42
15333;BMP180;7766;51.534;6.722;2022-09-09T03:43:26;66029.41;;;-132.42
15333;BMP180;7766;51.534;6.722;2022-09-09T03:44:27;66029.41;;;-132.42
15333;BMP180;7766;51.534;6.722;2022-09-09T03:45:28;66029.41;;;-132.42
15333;BMP180;7766;51.534;6.722;2022-09-09T03:46:29;66029.41;;;-132.42
15333;BMP180;7766;51.534;6.722;2022-09-09T03:47:30;66029.41;;;-132.42
15333;BMP180;7766;51.534;6.722;2022-09-09T03:48:31;66029.41;;;-132.42
15333;BMP180;7766;51.534;6.722;2022-09-09T03:49:32;66029.41;;;-132.42
15333;BMP180;7766;51.534;6.722;2022-09-09T03:50:33;66029.41;;;-132.42
15333;BMP180;7766;51.534;6.722;2022-09-09T03:51:34;66029.41;;;-132.42
15333;BMP180;7766;51.534;6.722;2022-09-09T03:52:38;66029.41;;;-132.42
15333;BMP180;7766;51.534;6.722;2022-09-09T03:53:39;66029.41;;;-132.42
15333;BMP180;7766;51.534;6.722;2022-09-09T03:54:41;66029.41;;;-132.42
15333;BMP180;7766;51.534;6.722;2022-09-09T03:55:47;66029.41;;;-132.42
15333;BMP180;7766;51.534;6.722;2022-09-09T03:56:48;66029.41;;;-132.42
15333;BMP180;7766;51.534;6.722;2022-09-09T03:57:49;66029.41;;;-132.42
15333;BMP180;7766;51.534;6.722;2022-09-09T03:58:50;66029.41;;;-132.42
15333;BMP180;7766;51.534;6.722;2022-09-09T03:59:51;66029.41;;;-132.42
15333;BMP180;7766;51.534;6.722;2022-09-09T04:01:00;66029.41;;;-132.42
15333;BMP180;7766;51.534;6.722;2022-09-09T04:02:03;66029.41;;;-132.42
15333;BMP180;7766;51.534;6.722;2022-09-09T04:03:04;66029.41;;;-132.42
15333;BMP180;7766;51.534;6.722;2022-09-09T04:04:05;66029.41;;;-132.42
15333;BMP180;7766;51.534;6.722;2022-09-09T04:05:06;66029.41;;;-132.42
15333;BMP180;7766;51.534;6.722;2022-09-09T04:06:09;66029.41;;;-132.42
15333;BMP180;7766;51.534;6.722;2022-09-09T04:07:11;66029.41;;;-132.42
15333;BMP180;7766;51.534;6.722;2022-09-09T04:08:12;66029.41;;;-132.42
15333;BMP180;7766;51.534;6.722;2022-09-09T04:09:14;66029.41;;;-132.42
15333;BMP180;7766;51.534;6.722;2022-09-09T04:10:15;66029.41;;;-132.42
15333;BMP180;7766;51.534;6.722;2022-09-09T04:11:16;66029.41;;;-132.42
15333;BMP180;7766;51.534;6.722;2022-09-09T04:12:17;66029.41;;;-132.42
15333;BMP180;7766;51.534;6.722;2022-09-09T04:13:19;66029.41;;;-132.42
15333;BMP180;7766;51.534;6.722;2022-09-09T04:14:20;66029.41;;;-132.42
15333;BMP180;7766;51.534;6.722;2022-09-09T04:15:21;66029.41;;;-132.42
15333;BMP180;7766;51.534;6.722;2022-09-09T04:16:22;66029.41;;;-132.42
15333;BMP180;7766;51.534;6.722;2022-09-09T04:17:23;66029.41;;;-132.42
15333;BMP180;7766;51.534;6.722;2022-09-09T04:18:25;66029.41;;;-132.42
15333;BMP180;7766;51.534;6.722;2022-09-09T04:19:26;66029.41;;;-132.42
15333;BMP180;7766;51.534;6.722;2022-09-09T04:20:27;66029.41;;;-132.42
15333;BMP180;7766;51.534;6.722;2022-09-09T04:21:28;66029.41;;;-132.42
15333;BMP180;7766;51.534;6.722;2022-09-09T04:22:30;66029.41;;;-132.42
15333;BMP180;7766;51.534;6.722;2022-09-09T04:23:31;66029.41;;;-132.42
15333;BMP180;7766;51.534;6.722;2022-09-09T04:24:31;66029.41;;;-132.42
15333;BMP180;7766;51.534;6.722;2022-09-09T04:25:32;66029.41;;;-132.42
15333;BMP180;7766;51.534;6.722;2022-09-09T04:26:35;66029.41;;;-132.42
15333;BMP180;7766;51.534;6.722;2022-09-09T04:27:37;66029.41;;;-132.42
15333;BMP180;7766;51.534;6.722;2022-09-09T04:28:37;66029.41;;;-132.42
15333;BMP180;7766;51.534;6.722;2022-09-09T04:29:38;66029.41;;;-132.42
15333;BMP180;7766;51.534;6.722;2022-09-09T04:30:39;66029.41;;;-132.42
15333;BMP180;7766;51.534;6.722;2022-09-09T04:31:40;66029.41;;;-132.42
15333;BMP180;7766;51.534;6.722;2022-09-09T04:32:42;66029.41;;;-132.42
15333;BMP180;7766;51.534;6.722;2022-09-09T04:33:43;66029.41;;;-132.42
15333;BMP180;7766;51.534;6.722;2022-09-09T04:34:44;66029.41;;;-132.42
15333;BMP180;7766;51.534;6.722;2022-09-09T04:35:47;66029.41;;;-132.42
15333;BMP180;7766;51.534;6.722;2022-09-09T04:36:49;66029.41;;;-132.42
15333;BMP180;7766;51.534;6.722;2022-09-09T04:37:50;66029.41;;;-132.42
15333;BMP180;7766;51.534;6.722;2022-09-09T04:38:51;66029.41;;;-132.42
15333;BMP180;7766;51.534;6.722;2022-09-09T04:39:52;66029.41;;;-132.42
15333;BMP180;7766;51.534;6.722;2022-09-09T04:40:53;66029.41;;;-132.42
15333;BMP180;7766;51.534;6.722;2022-09-09T04:41:54;66029.41;;;-132.42
15333;BMP180;7766;51.534;6.722;2022-09-09T04:42:59;66029.41;;;-132.42
15333;BMP180;7766;51.534;6.722;2022-09-09T04:44:00;66029.41;;;-132.42
15333;BMP180;7766;51.534;6.722;2022-09-09T04:45:02;66029.41;;;-132.42
15333;BMP180;7766;51.534;6.722;2022-09-09T04:46:03;66029.41;;;-132.42
15333;BMP180;7766;51.534;6.722;2022-09-09T04:47:04;66029.41;;;-132.42
15333;BMP180;7766;51.534;6.722;2022-09-09T04:48:05;66029.41;;;-132.42
15333;BMP180;7766;51.534;6.722;2022-09-09T04:49:06;66029.41;;;-132.42
15333;BMP180;7766;51.534;6.722;2022-09-09T04:50:07;66029.41;;;-132.42
15333;BMP180;7766;51.534;6.722;2022-09-09T04:51:12;66029.41;;;-132.42
15333;BMP180;7766;51.534;6.722;2022-09-09T04:52:13;66029.41;;;-132.42
15333;BMP180;7766;51.534;6.722;2022-09-09T04:53:17;66029.41;;;-132.42
15333;BMP180;7766;51.534;6.722;2022-09-09T04:54:18;66029.41;;;-132.42
15333;BMP180;7766;51.534;6.722;2022-09-09T04:55:19;66029.41;;;-132.42
15333;BMP180;7766;51.534;6.722;2022-09-09T04:56:21;66029.41;;;-132.42
15333;BMP180;7766;51.534;6.722;2022-09-09T04:57:21;66029.41;;;-132.42
15333;BMP180;7766;51.534;6.722;2022-09-09T04:58:22;66029.41;;;-132.42
15333;BMP180;7766;51.534;6.722;2022-09-09T04:59:24;66029.41;;;-132.42
15333;BMP180;7766;51.534;6.722;2022-09-09T05:00:25;66029.41;;;-132.42
15333;BMP180;7766;51.534;6.722;2022-09-09T05:01:26;66029.41;;;-132.42
15333;BMP180;7766;51.534;6.722;2022-09-09T05:02:27;66029.41;;;-132.42
15333;BMP180;7766;51.534;6.722;2022-09-09T05:03:28;66029.41;;;-132.42
15333;BMP180;7766;51.534;6.722;2022-09-09T05:04:29;66029.41;;;-132.42
15333;BMP180;7766;51.534;6.722;2022-09-09T05:05:30;66029.41;;;-132.42
15333;BMP180;7766;51.534;6.722;2022-09-09T05:06:31;66029.41;;;-132.42
15333;BMP180;7766;51.534;6.722;2022-09-09T05:07:32;66029.41;;;-132.42
15333;BMP180;7766;51.534;6.722;2022-09-09T05:08:34;66029.41;;;-132.42
15333;BMP180;7766;51.534;6.722;2022-09-09T05:09:35;66029.41;;;-132.42
15333;BMP180;7766;51.534;6.722;2022-09-09T05:10:38;66029.41;;;-132.42
15333;BMP180;7766;51.534;6.722;2022-09-09T05:11:39;66029.41;;;-132.42
15333;BMP180;7766;51.534;6.722;2022-09-09T05:12:40;66029.41;;;-132.42
15333;BMP180;7766;51.534;6.722;2022-09-09T05:13:41;66029.41;;;-132.42
15333;BMP180;7766;51.534;6.722;2022-09-09T05:14:43;66029.41;;;-132.42
15333;BMP180;7766;51.534;6.722;2022-09-09T05:15:52;66029.41;;;-132.42
15333;BMP180;7766;51.534;6.722;2022-09-09T05:16:53;66029.41;;;-132.42
15333;BMP180;7766;51.534;6.722;2022-09-09T05:17:57;66029.41;;;-132.42
15333;BMP180;7766;51.534;6.722;2022-09-09T05:18:59;66029.41;;;-132.42
15333;BMP180;7766;51.534;6.722;2022-09-09T05:20:00;66029.41;;;-132.42
15333;BMP180;7766;51.534;6.722;2022-09-09T05:21:03;66029.41;;;-132.42
15333;BMP180;7766;51.534;6.722;2022-09-09T05:22:04;66029.41;;;-132.42
15333;BMP180;7766;51.534;6.722;2022-09-09T05:23:05;66029.41;;;-132.42
15333;BMP180;7766;51.534;6.722;2022-09-09T05:24:06;66029.41;;;-132.42
15333;BMP180;7766;51.534;6.722;2022-09-09T05:25:07;66029.41;;;-132.42
15333;BMP180;7766;51.534;6.722;2022-09-09T05:26:17;66029.41;;;-132.42
15333;BMP180;7766;51.534;6.722;2022-09-09T05:27:18;66029.41;;;-132.42
15333;BMP180;7766;51.534;6.722;2022-09-09T05:28:19;66029.41;;;-132.42
15333;BMP180;7766;51.534;6.722;2022-09-09T05:29:20;66029.41;;;-132.42
15333;BMP180;7766;51.534;6.722;2022-09-09T05:30:22;66029.41;;;-132.42
15333;BMP180;7766;51.534;6.722;2022-09-09T05:31:26;66029.41;;;-132.42
15333;BMP180;7766;51.534;6.722;2022-09-09T05:32:30;66029.41;;;-132.42
15333;BMP180;7766;51.534;6.722;2022-09-09T05:33:35;66029.41;;;-132.42
15333;BMP180;7766;51.534;6.722;2022-09-09T05:34:36;66029.41;;;-132.42
15333;BMP180;7766;51.534;6.722;2022-09-09T05:35:37;66029.41;;;-132.42
15333;BMP180;7766;51.534;6.722;2022-09-09T05:36:38;66029.41;;;-132.42
15333;BMP180;7766;51.534;6.722;2022-09-09T05:37:40;66029.41;;;-132.42
15333;BMP180;7766;51.534;6.722;2022-09-09T05:38:42;66029.41;;;-132.42
15333;BMP180;7766;51.534;6.722;2022-09-09T05:39:43;66029.41;;;-132.42
15333;BMP180;7766;51.534;6.722;2022-09-09T05:40:48;66029.41;;;-132.42
15333;BMP180;7766;51.534;6.722;2022-09-09T05:41:50;66029.41;;;-132.42
15333;BMP180;7766;51.534;6.722;2022-09-09T05:42:51;66029.41;;;-132.42
15333;BMP180;7766;51.534;6.722;2022-09-09T05:43:54;66029.41;;;-132.42
15333;BMP180;7766;51.534;6.722;2022-09-09T05:44:55;66029.41;;;-132.42
15333;BMP180;7766;51.534;6.722;2022-09-09T05:46:02;66029.41;;;-132.42
15333;BMP180;7766;51.534;6.722;2022-09-09T05:47:03;66029.41;;;-132.42
15333;BMP180;7766;51.534;6.722;2022-09-09T05:48:04;66029.41;;;-132.42
15333;BMP180;7766;51.534;6.722;2022-09-09T05:49:06;66029.41;;;-132.42
15333;BMP180;7766;51.534;6.722;2022-09-09T05:50:07;66029.41;;;-132.42
15333;BMP180;7766;51.534;6.722;2022-09-09T05:51:10;66029.41;;;-132.42
15333;BMP180;7766;51.534;6.722;2022-09-09T05:52:16;66029.41;;;-132.42
15333;BMP180;7766;51.534;6.722;2022-09-09T05:53:17;66029.41;;;-132.42
15333;BMP180;7766;51.534;6.722;2022-09-09T05:54:18;66029.41;;;-132.42
15333;BMP180;7766;51.534;6.722;2022-09-09T05:55:18;66029.41;;;-132.42
15333;BMP180;7766;51.534;6.722;2022-09-09T05:56:25;66029.41;;;-132.42
15333;BMP180;7766;51.534;6.722;2022-09-09T05:57:26;66029.41;;;-132.42
15333;BMP180;7766;51.534;6.722;2022-09-09T05:58:27;66029.41;;;-132.42
15333;BMP180;7766;51.534;6.722;2022-09-09T05:59:28;66029.41;;;-132.42
15333;BMP180;7766;51.534;6.722;2022-09-09T06:00:29;66029.41;;;-132.42
15333;BMP180;7766;51.534;6.722;2022-09-09T06:01:34;66029.41;;;-132.42
15333;BMP180;7766;51.534;6.722;2022-09-09T06:02:35;66029.41;;;-132.42
15333;BMP180;7766;51.534;6.722;2022-09-09T06:03:39;66029.41;;;-132.42
15333;BMP180;7766;51.534;6.722;2022-09-09T06:04:40;66029.41;;;-132.42
15333;BMP180;7766;51.534;6.722;2022-09-09T06:05:42;66029.41;;;-132.42
15333;BMP180;7766;51.534;6.722;2022-09-09T06:06:43;66029.41;;;-132.42
15333;BMP180;7766;51.534;6.722;2022-09-09T06:07:44;66029.41;;;-132.42
15333;BMP180;7766;51.534;6.722;2022-09-09T06:08:46;66029.41;;;-132.42
15333;BMP180;7766;51.534;6.722;2022-09-09T06:09:46;66029.41;;;-132.42
15333;BMP180;7766;51.534;6.722;2022-09-09T06:10:48;66029.41;;;-132.42
15333;BMP180;7766;51.534;6.722;2022-09-09T06:11:49;66029.41;;;-132.42
15333;BMP180;7766;51.534;6.722;2022-09-09T06:12:52;66029.41;;;-132.42
15333;BMP180;7766;51.534;6.722;2022-09-09T06:13:54;66029.41;;;-132.42
15333;BMP180;7766;51.534;6.722;2022-09-09T06:14:55;66029.41;;;-132.42
15333;BMP180;7766;51.534;6.722;2022-09-09T06:15:56;66029.41;;;-132.42
15333;BMP180;7766;51.534;6.722;2022-09-09T06:16:57;66029.41;;;-132.42
15333;BMP180;7766;51.534;6.722;2022-09-09T06:17:58;66029.41;;;-132.42
15333;BMP180;7766;51.534;6.722;2022-09-09T06:18:59;66029.41;;;-132.42
15333;BMP180;7766;51.534;6.722;2022-09-09T06:20:01;66029.41;;;-132.42
15333;BMP180;7766;51.534;6.722;2022-09-09T06:21:04;66029.41;;;-132.42
15333;BMP180;7766;51.534;6.722;2022-09-09T06:22:05;66029.41;;;-132.42
15333;BMP180;7766;51.534;6.722;2022-09-09T06:23:06;66029.41;;;-132.42
15333;BMP180;7766;51.534;6.722;2022-09-09T06:24:07;66029.41;;;-132.42
15333;BMP180;7766;51.534;6.722;2022-09-09T06:25:09;66029.41;;;-132.42
15333;BMP180;7766;51.534;6.722;2022-09-09T06:26:18;66029.41;;;-132.42
15333;BMP180;7766;51.534;6.722;2022-09-09T06:27:19;66029.41;;;-132.42
15333;BMP180;7766;51.534;6.722;2022-09-09T06:28:20;66029.41;;;-132.42
15333;BMP180;7766;51.534;6.722;2022-09-09T06:29:21;66029.41;;;-132.42
15333;BMP180;7766;51.534;6.722;2022-09-09T06:30:22;66029.41;;;-132.42
15333;BMP180;7766;51.534;6.722;2022-09-09T06:31:26;66029.41;;;-132.42
15333;BMP180;7766;51.534;6.722;2022-09-09T06:32:29;66029.41;;;-132.42
15333;BMP180;7766;51.534;6.722;2022-09-09T06:33:41;-18060.69;;;185.33
15333;BMP180;7766;51.534;6.722;2022-09-09T06:34:42;128160.50;;;185.33
15333;BMP180;7766;51.534;6.722;2022-09-09T06:35:50;66029.41;;;-132.42
15333;BMP180;7766;51.534;6.722;2022-09-09T06:36:52;-18060.69;;;185.33
15333;BMP180;7766;51.534;6.722;2022-09-09T06:37:53;66029.41;;;-132.42
15333;BMP180;7766;51.534;6.722;2022-09-09T06:38:55;66029.41;;;-132.42
15333;BMP180;7766;51.534;6.722;2022-09-09T06:39:56;66029.41;;;-132.42
15333;BMP180;7766;51.534;6.722;2022-09-09T06:41:00;66029.41;;;-132.42